Time;durP1;ratioP1;P1;durP2;ratioP2;P2;SDS_P1;SDS_P2;PMS_P1;PMS_P2;Temp;Humidity;BMP_temperature;BMP_pressure;BME280_temperature;BME280_humidity;BME280_pressure;Samples;Min_cycle;Max_cycle;Signal;HPM_P1;HPM_P2
2022/08/29 00:01:36;;;;;;;6.67;2.50;;;16.20;99.90;;;;;;5062463;28;20449;-78
2022/08/29 00:04:03;;;;;;;7.60;2.63;;;16.10;99.90;;;;;;5048888;28;20420;-78
2022/08/29 00:06:30;;;;;;;5.73;2.57;;;16.10;99.90;;;;;;5052084;28;20489;-78
2022/08/29 00:08:57;;;;;;;7.83;3.10;;;16.10;99.90;;;;;;5062216;28;20472;-78
2022/08/29 00:11:23;;;;;;;6.23;3.33;;;16.00;99.90;;;;;;5060043;28;20571;-78
2022/08/29 00:13:51;;;;;;;12.83;3.20;;;16.00;99.90;;;;;;5055910;28;20865;-78
2022/08/29 00:16:18;;;;;;;6.43;3.00;;;16.00;99.90;;;;;;5052526;28;20503;-77
2022/08/29 00:18:46;;;;;;;5.37;2.50;;;16.00;99.90;;;;;;5064756;28;20535;-78
2022/08/29 00:21:13;;;;;;;8.83;3.30;;;15.90;99.90;;;;;;5066513;28;21205;-78
2022/08/29 00:23:40;;;;;;;4.73;2.70;;;15.90;99.90;;;;;;5054810;28;20514;-78
2022/08/29 00:26:07;;;;;;;7.50;3.30;;;15.80;99.90;;;;;;5048560;28;20894;-78
2022/08/29 00:28:34;;;;;;;5.43;2.63;;;15.80;99.90;;;;;;5050473;28;20454;-78
2022/08/29 00:31:01;;;;;;;6.00;3.07;;;15.80;99.90;;;;;;5058956;28;20453;-78
2022/08/29 00:33:28;;;;;;;7.43;3.00;;;15.80;99.90;;;;;;5051653;28;20476;-77
2022/08/29 00:35:56;;;;;;;14.27;3.13;;;15.70;99.90;;;;;;5052040;28;20470;-78
2022/08/29 00:38:23;;;;;;;5.30;3.30;;;15.70;99.90;;;;;;5052058;28;20503;-78
2022/08/29 00:40:52;;;;;;;5.10;2.87;;;15.70;99.90;;;;;;5050703;28;21181;-77
2022/08/29 00:43:21;;;;;;;5.97;3.50;;;15.60;99.90;;;;;;5065873;28;20472;-78
2022/08/29 00:45:54;;;;;;;4.43;2.90;;;15.60;99.90;;;;;;5057535;28;20481;-78
2022/08/29 00:48:21;;;;;;;5.43;2.60;;;15.50;99.90;;;;;;5051726;28;20445;-78
2022/08/29 00:50:52;;;;;;;6.70;3.07;;;15.50;99.90;;;;;;5051972;28;20450;-78
2022/08/29 00:53:27;;;;;;;9.83;3.30;;;15.50;99.90;;;;;;5051448;28;20488;-78
2022/08/29 00:55:54;;;;;;;4.17;3.00;;;15.40;99.90;;;;;;5060409;28;20448;-78
2022/08/29 00:58:27;;;;;;;4.27;2.67;;;15.40;99.90;;;;;;5054899;28;20453;-78
2022/08/29 01:00:54;;;;;;;5.47;3.00;;;15.30;99.90;;;;;;5052633;28;20515;-78
2022/08/29 01:03:21;;;;;;;11.87;3.07;;;15.30;99.90;;;;;;5052369;28;20465;-78
2022/08/29 01:05:48;;;;;;;6.87;2.83;;;15.20;99.90;;;;;;5062867;28;20488;-78
2022/08/29 01:08:14;;;;;;;5.83;2.90;;;15.10;99.90;;;;;;5052980;28;20519;-78
2022/08/29 01:13:32;;;;;;;4.80;2.87;;;15.10;99.90;;;;;;5059582;28;20472;-78
2022/08/29 01:16:00;;;;;;;13.07;3.20;;;15.10;99.90;;;;;;5052944;28;20511;-78
2022/08/29 01:18:30;;;;;;;9.83;3.30;;;15.00;99.90;;;;;;5059971;28;20500;-78
2022/08/29 01:21:04;;;;;;;8.30;2.73;;;15.00;99.90;;;;;;5060556;28;21049;-78
2022/08/29 01:23:39;;;;;;;4.80;3.07;;;15.00;99.90;;;;;;5065925;28;20857;-78
2022/08/29 01:26:09;;;;;;;4.70;2.90;;;15.00;99.90;;;;;;5051383;28;20484;-78
2022/08/29 01:28:40;;;;;;;7.30;3.00;;;15.00;99.90;;;;;;5054480;28;20957;-77
2022/08/29 01:31:09;;;;;;;5.13;2.77;;;15.00;99.90;;;;;;5067809;28;20452;-77
2022/08/29 01:33:40;;;;;;;5.83;3.07;;;15.00;99.90;;;;;;5051022;28;20477;-78
2022/08/29 01:36:08;;;;;;;7.63;3.17;;;15.00;99.90;;;;;;5050586;28;20470;-78
2022/08/29 01:38:35;;;;;;;4.83;2.53;;;15.00;99.90;;;;;;5049249;28;20458;-77
2022/08/29 01:41:02;;;;;;;15.20;3.30;;;14.90;99.90;;;;;;5060169;28;20456;-77
2022/08/29 01:43:31;;;;;;;7.10;3.20;;;14.90;99.90;;;;;;5054683;28;20469;-78
2022/08/29 01:45:58;;;;;;;6.27;3.50;;;14.90;99.90;;;;;;5050920;28;20559;-78
2022/08/29 01:48:25;;;;;;;3.40;2.93;;;14.80;99.90;;;;;;5047171;28;20449;-78
2022/08/29 01:50:51;;;;;;;7.47;3.27;;;14.80;99.90;;;;;;5052480;28;20461;-77
2022/08/29 01:53:18;;;;;;;9.20;3.10;;;14.70;99.90;;;;;;5063579;28;20519;-77
2022/08/29 01:55:44;;;;;;;4.40;3.20;;;14.70;99.90;;;;;;5047136;28;20453;-77
2022/08/29 01:58:11;;;;;;;4.30;3.03;;;14.70;99.90;;;;;;5050930;28;20450;-77
2022/08/29 02:00:39;;;;;;;5.83;3.20;;;14.70;99.90;;;;;;5050973;28;20453;-77
2022/08/29 02:03:06;;;;;;;7.63;3.10;;;14.70;99.90;;;;;;5050777;28;20819;-77
2022/08/29 02:05:33;;;;;;;6.87;3.00;;;14.70;99.90;;;;;;5051813;28;20822;-78
2022/08/29 02:08:00;;;;;;;7.03;3.17;;;14.70;99.90;;;;;;5050919;28;20460;-77
2022/08/29 02:10:27;;;;;;;7.40;2.77;;;14.60;99.90;;;;;;5060037;28;20537;-77
2022/08/29 02:12:53;;;;;;;9.90;3.60;;;14.60;99.90;;;;;;5058666;28;20525;-77
2022/08/29 02:15:20;;;;;;;7.00;3.37;;;14.60;99.90;;;;;;5061655;28;20445;-78
2022/08/29 02:17:48;;;;;;;5.63;3.10;;;14.60;99.90;;;;;;5059509;28;20956;-77
2022/08/29 02:20:15;;;;;;;7.63;3.33;;;14.50;99.90;;;;;;5071835;28;20505;-77
2022/08/29 02:22:42;;;;;;;8.50;3.40;;;14.50;99.90;;;;;;5072978;28;20525;-77
2022/08/29 02:27:51;;;;;;;12.30;3.30;;;14.50;99.90;;;;;;5053951;28;20473;-77
2022/08/29 02:30:18;;;;;;;5.83;3.30;;;14.40;99.90;;;;;;5055054;28;20445;-77
2022/08/29 02:32:45;;;;;;;11.80;3.90;;;14.40;99.90;;;;;;5053972;28;21275;-77
2022/08/29 02:35:13;;;;;;;10.87;3.43;;;14.40;99.90;;;;;;5055373;28;20511;-77
2022/08/29 02:37:40;;;;;;;6.40;3.37;;;14.40;99.90;;;;;;5061324;28;20459;-78
2022/08/29 02:40:08;;;;;;;7.97;3.50;;;14.40;99.90;;;;;;5061230;28;20461;-77
2022/08/29 02:42:35;;;;;;;5.30;2.97;;;14.40;99.90;;;;;;5052709;28;21015;-78
2022/08/29 02:45:02;;;;;;;6.47;3.43;;;14.30;99.90;;;;;;5070814;28;20797;-78
2022/08/29 02:47:28;;;;;;;10.00;3.60;;;14.30;99.90;;;;;;5062125;28;20467;-78
2022/08/29 02:49:55;;;;;;;11.10;4.00;;;14.30;99.90;;;;;;5054388;28;20515;-78
2022/08/29 02:52:23;;;;;;;9.37;3.47;;;14.30;99.90;;;;;;5066521;28;20542;-78
2022/08/29 02:54:49;;;;;;;10.27;3.73;;;14.30;99.90;;;;;;5056339;28;20479;-78
2022/08/29 02:57:16;;;;;;;10.00;3.20;;;14.30;99.90;;;;;;5053865;28;20449;-78
2022/08/29 02:59:43;;;;;;;8.80;4.40;;;14.30;99.90;;;;;;5054024;28;20538;-78
2022/08/29 03:02:09;;;;;;;8.40;3.73;;;14.20;99.90;;;;;;5055256;28;20475;-78
2022/08/29 03:04:36;;;;;;;6.83;3.27;;;14.20;99.90;;;;;;5053760;28;20499;-78
2022/08/29 03:07:04;;;;;;;9.33;3.93;;;14.20;99.90;;;;;;5055646;28;20507;-78
2022/08/29 03:09:32;;;;;;;7.87;3.90;;;14.10;99.90;;;;;;5054037;28;20465;-78
2022/08/29 03:11:59;;;;;;;8.53;4.17;;;14.10;99.90;;;;;;5061894;28;20893;-78
2022/08/29 03:14:25;;;;;;;13.57;3.80;;;14.10;99.90;;;;;;5062239;28;20446;-78
2022/08/29 03:16:52;;;;;;;16.27;3.70;;;14.00;99.90;;;;;;5063813;28;20468;-78
2022/08/29 03:19:19;;;;;;;9.93;3.93;;;14.00;99.90;;;;;;5061924;28;20517;-78
2022/08/29 03:21:46;;;;;;;8.43;3.60;;;14.00;99.90;;;;;;5053434;28;20477;-78
2022/08/29 03:24:13;;;;;;;9.53;3.37;;;14.00;99.90;;;;;;5053371;28;20511;-78
2022/08/29 03:26:41;;;;;;;7.43;3.90;;;14.00;99.90;;;;;;5053434;28;20894;-78
2022/08/29 03:29:07;;;;;;;9.83;3.87;;;14.00;99.90;;;;;;5053410;28;20453;-78
2022/08/29 03:31:34;;;;;;;13.33;3.60;;;14.00;99.90;;;;;;5050667;28;20500;-78
2022/08/29 03:34:01;;;;;;;8.20;4.23;;;13.90;99.90;;;;;;5053364;28;20873;-78
2022/08/29 03:36:28;;;;;;;6.60;3.70;;;13.90;99.90;;;;;;5052584;28;20972;-78
2022/08/29 03:38:55;;;;;;;10.60;4.20;;;13.90;99.90;;;;;;5069362;28;20471;-77
2022/08/29 03:41:23;;;;;;;11.30;3.67;;;13.80;99.90;;;;;;5071630;28;20874;-77
2022/08/29 03:43:51;;;;;;;13.57;3.90;;;13.80;99.90;;;;;;5063232;28;20507;-77
2022/08/29 03:46:18;;;;;;;9.77;4.47;;;13.80;99.90;;;;;;5053530;28;20445;-78
2022/08/29 03:48:44;;;;;;;10.37;3.97;;;13.80;99.90;;;;;;5051032;28;20876;-77
2022/08/29 03:51:11;;;;;;;17.13;4.53;;;13.80;99.90;;;;;;5052970;28;20503;-77
2022/08/29 03:53:39;;;;;;;11.07;3.40;;;13.70;99.90;;;;;;5060654;28;20522;-77
2022/08/29 03:56:07;;;;;;;9.17;4.30;;;13.70;99.90;;;;;;5052627;28;20467;-78
2022/08/29 03:58:34;;;;;;;10.57;3.97;;;13.70;99.90;;;;;;5051376;28;20477;-77
2022/08/29 04:01:02;;;;;;;12.73;3.77;;;13.70;99.90;;;;;;5071774;28;20537;-78
2022/08/29 04:03:29;;;;;;;9.67;4.27;;;13.70;99.90;;;;;;5071341;28;20472;-78
2022/08/29 04:05:56;;;;;;;8.90;4.40;;;13.70;99.90;;;;;;5057299;28;20461;-78
2022/08/29 04:08:22;;;;;;;6.47;4.13;;;13.60;99.90;;;;;;5065949;28;20488;-78
2022/08/29 04:10:49;;;;;;;14.77;4.40;;;13.60;99.90;;;;;;5053838;28;20516;-78
2022/08/29 04:13:16;;;;;;;9.37;4.10;;;13.60;99.90;;;;;;5059395;28;20472;-78
2022/08/29 04:15:43;;;;;;;14.33;4.27;;;13.50;99.90;;;;;;5053970;28;20508;-78
2022/08/29 04:18:11;;;;;;;9.50;4.57;;;13.50;99.90;;;;;;5057278;28;20870;-78
2022/08/29 04:20:40;;;;;;;16.17;4.63;;;13.50;99.90;;;;;;5060293;28;20452;-78
2022/08/29 04:23:07;;;;;;;11.43;3.80;;;13.40;99.90;;;;;;5051834;28;20501;-77
2022/08/29 04:25:35;;;;;;;6.33;4.00;;;13.40;99.90;;;;;;5048030;28;20445;-78
2022/08/29 04:28:04;;;;;;;8.63;4.40;;;13.40;99.90;;;;;;5066298;28;20488;-78
2022/08/29 04:30:31;;;;;;;7.97;4.07;;;13.40;99.90;;;;;;5065343;28;20453;-78
2022/08/29 04:32:57;;;;;;;14.73;4.30;;;13.40;99.90;;;;;;5052631;28;20534;-78
2022/08/29 04:35:25;;;;;;;9.30;4.10;;;13.40;99.90;;;;;;5053628;28;20453;-78
2022/08/29 04:37:52;;;;;;;12.10;4.30;;;13.30;99.90;;;;;;5051704;28;20457;-78
2022/08/29 04:40:21;;;;;;;7.27;4.23;;;13.40;99.90;;;;;;5060937;28;20461;-77
2022/08/29 04:42:48;;;;;;;7.13;4.27;;;13.30;99.90;;;;;;5053493;28;20473;-78
2022/08/29 04:45:18;;;;;;;14.03;4.27;;;13.30;99.90;;;;;;5065845;28;20837;-78
2022/08/29 04:47:45;;;;;;;8.37;4.10;;;13.30;99.90;;;;;;5058597;28;20485;-78
2022/08/29 04:50:14;;;;;;;9.20;4.33;;;13.30;99.90;;;;;;5063308;28;20921;-78
2022/08/29 04:52:42;;;;;;;15.13;4.63;;;13.30;99.90;;;;;;5066378;28;20499;-78
2022/08/29 04:55:10;;;;;;;15.83;4.83;;;13.30;99.90;;;;;;5051667;28;20544;-78
2022/08/29 04:57:38;;;;;;;8.50;4.17;;;13.30;99.90;;;;;;5051533;28;21028;-78
2022/08/29 05:00:07;;;;;;;13.80;4.77;;;13.30;99.90;;;;;;5059029;28;20498;-78
2022/08/29 05:02:34;;;;;;;13.17;4.03;;;13.40;99.90;;;;;;5051862;28;20477;-78
2022/08/29 05:05:01;;;;;;;14.17;4.27;;;13.40;99.90;;;;;;5068114;28;20452;-77
2022/08/29 05:07:27;;;;;;;7.40;3.70;;;13.40;99.90;;;;;;5055817;28;20488;-78
2022/08/29 05:09:58;;;;;;;7.77;4.10;;;13.40;99.90;;;;;;5047789;28;20462;-72
2022/08/29 05:12:25;;;;;;;6.63;4.33;;;13.40;99.90;;;;;;5060001;28;20499;-71
2022/08/29 05:14:53;;;;;;;12.53;4.57;;;13.60;99.90;;;;;;5052779;28;20449;-71
2022/08/29 05:17:20;;;;;;;8.30;4.20;;;13.90;99.90;;;;;;5055447;28;20476;-72
2022/08/29 05:19:46;;;;;;;9.77;4.07;;;14.10;99.90;;;;;;5056955;28;20462;-71
2022/08/29 05:22:14;;;;;;;10.30;4.50;;;14.40;99.90;;;;;;5066461;28;21068;-71
2022/08/29 05:24:41;;;;;;;7.80;4.47;;;14.60;99.90;;;;;;5050425;28;20457;-71
2022/08/29 05:27:10;;;;;;;9.10;4.10;;;14.80;99.90;;;;;;5031852;28;20481;-71
2022/08/29 05:29:38;;;;;;;13.03;4.93;;;15.10;99.90;;;;;;5042892;28;20445;-70
2022/08/29 05:32:05;;;;;;;8.83;4.10;;;15.50;99.90;;;;;;5042283;28;20491;-70
2022/08/29 05:34:33;;;;;;;14.10;4.07;;;15.90;99.90;;;;;;5045935;28;20461;-71
2022/08/29 05:36:59;;;;;;;12.17;4.60;;;16.10;99.90;;;;;;5045105;28;20462;-72
2022/08/29 05:39:26;;;;;;;11.93;4.30;;;16.40;99.90;;;;;;5045337;28;20868;-71
2022/08/29 05:41:55;;;;;;;12.43;4.40;;;16.70;99.90;;;;;;5044002;28;20515;-72
2022/08/29 05:44:23;;;;;;;7.83;4.07;;;16.90;99.90;;;;;;5045399;28;20537;-72
2022/08/29 05:46:49;;;;;;;8.30;4.63;;;17.00;99.90;;;;;;5044930;28;20503;-72
2022/08/29 05:49:16;;;;;;;18.07;4.93;;;17.10;99.90;;;;;;5047400;28;20457;-72
2022/08/29 05:51:43;;;;;;;20.27;4.70;;;17.10;99.90;;;;;;5045850;28;20469;-72
2022/08/29 05:54:10;;;;;;;17.93;4.33;;;17.20;99.90;;;;;;5046701;28;20453;-72
2022/08/29 05:56:36;;;;;;;6.60;3.90;;;17.10;99.90;;;;;;5044586;28;20432;-72
2022/08/29 05:59:03;;;;;;;11.10;4.03;;;17.10;99.90;;;;;;5045693;28;21602;-72
2022/08/29 06:01:33;;;;;;;6.83;4.53;;;17.10;99.90;;;;;;5042591;28;20446;-72
2022/08/29 06:04:01;;;;;;;9.13;3.60;;;17.40;99.90;;;;;;5044472;28;20457;-71
2022/08/29 06:06:29;;;;;;;10.60;4.07;;;17.70;99.90;;;;;;5044808;28;20513;-71
2022/08/29 06:08:57;;;;;;;10.13;5.20;;;18.00;99.90;;;;;;5046999;28;20505;-71
2022/08/29 06:11:26;;;;;;;5.87;4.03;;;18.10;99.90;;;;;;5045887;28;20510;-71
2022/08/29 06:13:53;;;;;;;9.03;4.40;;;18.50;99.90;;;;;;5045916;28;20515;-71
2022/08/29 06:16:22;;;;;;;11.50;4.43;;;18.90;99.90;;;;;;5044354;28;21121;-71
2022/08/29 06:18:51;;;;;;;10.40;4.70;;;19.30;99.90;;;;;;5046937;28;20424;-71
2022/08/29 06:21:18;;;;;;;7.40;4.07;;;19.60;99.90;;;;;;5045351;28;20519;-71
2022/08/29 06:23:45;;;;;;;9.67;4.57;;;19.70;99.90;;;;;;5046814;28;20448;-70
2022/08/29 06:26:13;;;;;;;7.97;4.10;;;19.80;99.90;;;;;;5046326;28;20859;-71
2022/08/29 06:28:42;;;;;;;8.57;4.00;;;19.80;99.90;;;;;;5045856;28;21047;-71
2022/08/29 06:31:10;;;;;;;16.50;4.50;;;19.80;99.90;;;;;;5046808;28;20510;-71
2022/08/29 06:33:38;;;;;;;11.27;5.17;;;19.70;99.90;;;;;;5046407;28;20455;-69
2022/08/29 06:36:07;;;;;;;9.27;4.00;;;19.80;99.90;;;;;;5044977;28;20457;-69
2022/08/29 06:38:35;;;;;;;9.47;4.73;;;19.90;99.90;;;;;;5045512;28;20481;-69
2022/08/29 06:41:03;;;;;;;11.00;4.40;;;19.90;99.90;;;;;;5046161;28;20416;-71
2022/08/29 06:43:29;;;;;;;12.73;4.93;;;20.10;99.90;;;;;;5044474;28;20444;-70
2022/08/29 06:45:56;;;;;;;10.23;4.40;;;20.20;99.90;;;;;;5044777;28;20943;-70
2022/08/29 06:48:22;;;;;;;10.80;4.70;;;20.20;99.90;;;;;;5045182;28;20859;-70
2022/08/29 06:50:49;;;;;;;13.43;4.40;;;20.20;99.90;;;;;;5045869;28;20481;-70
2022/08/29 06:53:17;;;;;;;8.40;4.30;;;20.00;99.90;;;;;;5044102;28;20522;-70
2022/08/29 06:55:44;;;;;;;13.93;4.77;;;20.10;99.90;;;;;;5044056;28;20986;-70
2022/08/29 06:58:11;;;;;;;15.63;4.70;;;20.20;99.90;;;;;;5043329;28;20458;-71
2022/08/29 07:00:39;;;;;;;8.37;4.27;;;20.10;99.90;;;;;;5044706;28;20592;-71
2022/08/29 07:03:06;;;;;;;15.40;4.00;;;20.00;99.90;;;;;;5046172;28;20886;-71
2022/08/29 07:05:33;;;;;;;7.63;4.80;;;20.00;99.90;;;;;;5047824;28;20481;-71
2022/08/29 07:08:00;;;;;;;8.73;4.60;;;20.00;99.90;;;;;;5047297;28;20490;-73
2022/08/29 07:10:28;;;;;;;10.07;4.40;;;20.20;99.90;;;;;;5049136;28;20428;-71
2022/08/29 07:12:55;;;;;;;11.73;4.83;;;20.40;99.90;;;;;;5047455;28;20458;-71
2022/08/29 07:15:23;;;;;;;8.50;4.10;;;20.60;99.90;;;;;;5048050;28;20897;-72
2022/08/29 07:17:50;;;;;;;7.83;4.17;;;20.80;99.90;;;;;;5049538;28;20457;-71
2022/08/29 07:20:17;;;;;;;9.60;4.33;;;20.80;99.90;;;;;;5049377;28;20445;-71
2022/08/29 07:22:49;;;;;;;10.33;4.50;;;20.90;99.90;;;;;;5049585;28;20497;-71
2022/08/29 07:25:19;;;;;;;10.80;4.10;;;20.80;99.90;;;;;;5048069;28;20457;-71
2022/08/29 07:27:48;;;;;;;9.70;4.37;;;20.80;99.90;;;;;;5047100;28;20463;-72
2022/08/29 07:30:16;;;;;;;8.07;4.20;;;20.80;99.90;;;;;;5048450;28;20482;-71
2022/08/29 07:32:44;;;;;;;10.50;4.50;;;20.90;99.90;;;;;;5047136;28;20473;-73
2022/08/29 07:35:11;;;;;;;13.40;4.37;;;21.10;99.90;;;;;;5048138;28;20457;-73
2022/08/29 07:37:37;;;;;;;10.90;4.90;;;21.30;99.90;;;;;;5047895;28;20468;-72
2022/08/29 07:40:05;;;;;;;14.70;5.43;;;21.20;99.90;;;;;;5047488;28;20506;-73
2022/08/29 07:42:33;;;;;;;9.00;4.33;;;21.20;99.90;;;;;;5047060;28;20549;-71
2022/08/29 07:45:01;;;;;;;10.27;4.57;;;21.20;99.90;;;;;;5048399;28;20484;-73
2022/08/29 07:47:28;;;;;;;12.77;4.47;;;21.40;99.90;;;;;;5047140;28;20458;-73
2022/08/29 07:49:55;;;;;;;7.93;3.97;;;21.50;99.90;;;;;;5047664;28;20461;-71
2022/08/29 07:52:22;;;;;;;12.27;4.40;;;21.70;99.90;;;;;;5047073;28;21049;-71
2022/08/29 07:54:48;;;;;;;11.13;4.00;;;21.70;99.90;;;;;;5042362;28;20482;-71
2022/08/29 07:57:16;;;;;;;7.63;4.30;;;21.90;99.90;;;;;;5048342;28;20523;-71
2022/08/29 07:59:43;;;;;;;8.87;4.40;;;22.10;99.90;;;;;;5045862;28;20450;-69
2022/08/29 08:02:11;;;;;;;8.67;4.10;;;22.20;99.90;;;;;;5047090;28;20469;-70
2022/08/29 08:04:38;;;;;;;12.43;4.73;;;22.20;99.90;;;;;;5049318;28;20872;-70
2022/08/29 08:07:05;;;;;;;11.83;4.63;;;22.40;99.90;;;;;;5046981;28;20458;-70
2022/08/29 08:09:32;;;;;;;19.67;5.17;;;22.50;99.90;;;;;;5047678;28;20481;-70
2022/08/29 08:11:59;;;;;;;11.50;4.17;;;22.50;99.90;;;;;;5047089;28;20476;-71
2022/08/29 08:14:25;;;;;;;6.57;4.20;;;22.60;99.90;;;;;;5046386;28;20445;-70
2022/08/29 08:16:52;;;;;;;10.67;4.33;;;22.60;99.90;;;;;;5045309;28;20449;-70
2022/08/29 08:19:20;;;;;;;8.53;4.07;;;22.60;99.90;;;;;;5045387;28;20450;-70
2022/08/29 08:21:46;;;;;;;12.83;4.00;;;22.50;99.90;;;;;;5045374;28;20474;-70
2022/08/29 08:24:13;;;;;;;14.20;4.40;;;22.40;99.90;;;;;;5047478;28;20515;-71
2022/08/29 08:26:40;;;;;;;9.13;3.83;;;22.50;99.90;;;;;;5047556;28;20450;-71
2022/08/29 08:29:07;;;;;;;9.57;3.90;;;22.60;99.90;;;;;;5048671;28;20484;-70
2022/08/29 08:31:34;;;;;;;11.40;4.30;;;22.60;99.90;;;;;;5046697;28;20873;-71
2022/08/29 08:34:00;;;;;;;11.67;4.40;;;22.60;99.90;;;;;;5047047;28;20446;-71
2022/08/29 08:36:30;;;;;;;17.07;4.97;;;22.60;99.90;;;;;;5047437;28;20904;-71
2022/08/29 08:38:59;;;;;;;13.97;4.53;;;22.60;99.90;;;;;;5045412;28;20494;-72
2022/08/29 08:41:34;;;;;;;12.80;4.30;;;22.60;99.90;;;;;;5046539;28;20450;-71
2022/08/29 08:44:05;;;;;;;12.40;4.20;;;22.70;99.90;;;;;;5047423;28;20605;-71
2022/08/29 08:46:38;;;;;;;10.97;4.97;;;22.60;99.90;;;;;;5047232;28;20548;-70
2022/08/29 08:49:07;;;;;;;12.77;4.20;;;22.60;99.90;;;;;;5045429;28;20489;-71
2022/08/29 08:51:39;;;;;;;17.30;4.40;;;22.50;99.90;;;;;;5047473;28;20457;-72
2022/08/29 08:54:14;;;;;;;11.60;4.20;;;22.50;99.90;;;;;;5047237;28;20442;-72
2022/08/29 08:56:45;;;;;;;9.13;4.03;;;22.60;99.90;;;;;;5046263;28;20514;-72
2022/08/29 08:59:18;;;;;;;11.87;4.60;;;22.80;99.90;;;;;;5047113;28;20460;-71
2022/08/29 09:01:54;;;;;;;11.60;4.20;;;22.90;99.90;;;;;;5045891;28;20465;-72
2022/08/29 09:04:36;;;;;;;15.03;4.10;;;23.00;99.90;;;;;;5046933;28;20457;-72
2022/08/29 09:07:22;;;;;;;10.13;4.23;;;23.10;99.90;;;;;;5046696;28;20449;-72
2022/08/29 09:10:01;;;;;;;13.90;4.20;;;23.10;99.90;;;;;;5046952;28;20488;-71
2022/08/29 09:12:37;;;;;;;6.83;3.63;;;22.90;99.90;;;;;;5045638;28;20485;-72
2022/08/29 09:15:08;;;;;;;9.50;4.13;;;22.90;99.90;;;;;;5044038;28;20457;-71
2022/08/29 09:17:42;;;;;;;9.73;4.30;;;23.00;99.90;;;;;;5047071;28;20483;-72
2022/08/29 09:20:12;;;;;;;9.23;4.00;;;23.30;99.90;;;;;;5044589;28;20445;-71
2022/08/29 09:22:42;;;;;;;14.77;4.83;;;23.60;99.90;;;;;;5045524;28;21026;-71
2022/08/29 09:25:11;;;;;;;15.00;4.87;;;23.80;99.90;;;;;;5046441;28;20452;-72
2022/08/29 09:27:39;;;;;;;9.53;4.17;;;24.10;99.90;;;;;;5044794;28;21003;-72
2022/08/29 09:30:09;;;;;;;10.27;4.57;;;24.50;99.90;;;;;;5045994;28;20535;-72
2022/08/29 09:32:52;;;;;;;13.07;4.47;;;24.70;99.90;;;;;;5047377;28;20477;-72
2022/08/29 09:35:23;;;;;;;9.50;3.67;;;24.90;99.90;;;;;;5044035;28;21223;-72
2022/08/29 09:37:59;;;;;;;12.23;4.03;;;24.90;99.90;;;;;;5046313;28;20469;-72
2022/08/29 09:40:43;;;;;;;7.20;3.70;;;25.20;99.90;;;;;;5044468;28;20507;-72
2022/08/29 09:43:17;;;;;;;13.13;3.70;;;25.50;99.90;;;;;;5046494;28;20515;-72
2022/08/29 09:46:08;;;;;;;11.23;3.30;;;25.70;99.90;;;;;;5046415;28;20442;-71
2022/08/29 09:48:36;;;;;;;8.43;3.30;;;25.50;99.90;;;;;;5048149;28;20499;-72
2022/08/29 09:51:16;;;;;;;12.00;3.80;;;25.40;99.90;;;;;;5046866;28;20457;-72
2022/08/29 09:53:44;;;;;;;7.60;3.23;;;25.60;99.90;;;;;;5046118;28;20469;-71
2022/08/29 09:56:17;;;;;;;5.90;2.97;;;25.70;99.90;;;;;;5045715;28;20460;-70
2022/08/29 09:58:44;;;;;;;9.60;3.47;;;25.70;99.50;;;;;;5045953;28;20458;-71
2022/08/29 10:01:16;;;;;;;7.30;3.40;;;25.40;98.80;;;;;;5044308;28;20449;-72
2022/08/29 10:03:52;;;;;;;11.27;3.60;;;25.10;99.80;;;;;;5046345;28;20542;-72
2022/08/29 10:06:22;;;;;;;9.30;3.10;;;25.10;99.90;;;;;;5045509;28;20481;-72
2022/08/29 10:08:58;;;;;;;5.90;3.27;;;25.40;99.90;;;;;;5045643;28;20908;-72
2022/08/29 10:11:37;;;;;;;11.33;3.40;;;25.80;99.50;;;;;;5046066;28;20476;-70
2022/08/29 10:14:07;;;;;;;9.97;3.70;;;26.20;99.40;;;;;;5044592;28;20514;-70
2022/08/29 10:16:45;;;;;;;10.90;3.53;;;26.50;99.20;;;;;;5046288;28;20449;-71
2022/08/29 10:19:15;;;;;;;11.00;3.30;;;26.80;98.20;;;;;;5044783;28;20457;-71
2022/08/29 10:21:50;;;;;;;9.93;3.60;;;26.70;98.00;;;;;;5046249;28;20481;-71
2022/08/29 10:24:30;;;;;;;9.43;3.60;;;26.70;98.60;;;;;;5045924;28;20448;-71
2022/08/29 10:27:07;;;;;;;5.87;3.13;;;26.80;97.70;;;;;;5043931;28;20503;-71
2022/08/29 10:29:54;;;;;;;9.00;3.77;;;26.80;97.10;;;;;;5045791;28;20481;-71
2022/08/29 10:32:31;;;;;;;11.40;3.80;;;26.80;97.80;;;;;;5042751;28;20993;-71
2022/08/29 10:35:06;;;;;;;8.23;2.90;;;26.80;97.80;;;;;;5045790;28;20457;-71
2022/08/29 10:37:44;;;;;;;9.63;3.20;;;27.10;97.60;;;;;;5046024;28;20468;-71
2022/08/29 10:40:18;;;;;;;5.23;2.60;;;27.30;95.40;;;;;;5049855;28;20449;-70
2022/08/29 10:42:47;;;;;;;6.23;2.80;;;27.50;95.20;;;;;;5047538;28;20473;-72
2022/08/29 10:45:18;;;;;;;5.47;3.00;;;27.40;95.10;;;;;;5048985;28;20956;-70
2022/08/29 10:47:51;;;;;;;9.60;3.00;;;27.20;94.30;;;;;;5050382;28;20965;-70
2022/08/29 10:50:26;;;;;;;9.10;3.33;;;26.70;94.90;;;;;;5049425;28;20480;-69
2022/08/29 10:53:00;;;;;;;14.83;3.10;;;26.70;96.00;;;;;;5045539;28;20499;-70
2022/08/29 10:55:41;;;;;;;8.40;3.23;;;26.60;96.30;;;;;;5047363;28;20453;-70
2022/08/29 10:58:11;;;;;;;7.17;3.40;;;26.80;96.30;;;;;;5047500;28;20456;-70
2022/08/29 11:00:43;;;;;;;9.03;3.10;;;26.70;95.20;;;;;;5046710;28;20488;-70
2022/08/29 11:03:22;;;;;;;6.90;2.57;;;26.70;94.90;;;;;;5048720;28;20608;-71
2022/08/29 11:05:56;;;;;;;12.03;3.20;;;26.60;94.90;;;;;;5047298;28;20449;-71
2022/08/29 11:08:29;;;;;;;6.73;2.77;;;26.60;94.80;;;;;;5049925;28;20457;-71
2022/08/29 11:10:57;;;;;;;10.73;3.30;;;26.60;94.30;;;;;;5048854;28;20461;-70
2022/08/29 11:13:29;;;;;;;7.97;3.00;;;26.80;94.70;;;;;;5050210;28;20484;-70
2022/08/29 11:16:04;;;;;;;10.60;3.50;;;26.50;94.80;;;;;;5047817;28;20462;-72
2022/08/29 11:18:36;;;;;;;6.57;3.00;;;26.40;95.30;;;;;;5047752;28;20503;-71
2022/08/29 11:21:12;;;;;;;7.60;3.17;;;26.50;94.70;;;;;;5047962;28;20463;-72
2022/08/29 11:23:40;;;;;;;6.60;2.87;;;26.60;94.70;;;;;;5049366;28;20743;-71
2022/08/29 11:26:18;;;;;;;10.00;3.57;;;26.40;93.80;;;;;;5049103;28;20461;-71
2022/08/29 11:28:55;;;;;;;6.60;3.27;;;26.30;94.40;;;;;;5047784;28;20458;-71
2022/08/29 11:31:38;;;;;;;6.20;3.13;;;26.40;95.10;;;;;;5045820;28;20476;-71
2022/08/29 11:34:17;;;;;;;9.20;3.00;;;26.50;94.20;;;;;;5048077;28;20459;-71
2022/08/29 11:36:57;;;;;;;10.37;3.17;;;26.40;93.90;;;;;;5049077;28;20457;-71
2022/08/29 11:39:52;;;;;;;4.37;3.00;;;26.50;94.20;;;;;;5045033;28;20446;-71
2022/08/29 11:42:27;;;;;;;16.23;2.83;;;27.00;94.40;;;;;;5046939;28;20477;-71
2022/08/29 11:44:56;;;;;;;8.17;3.30;;;27.30;93.70;;;;;;5048045;28;20457;-71
2022/08/29 11:47:55;;;;;;;8.43;3.53;;;27.50;93.20;;;;;;5045668;28;20454;-70
2022/08/29 11:50:29;;;;;;;5.93;3.77;;;27.70;93.30;;;;;;5044670;28;21085;-69
2022/08/29 11:52:59;;;;;;;9.13;3.10;;;27.80;93.50;;;;;;5046415;28;20484;-69
2022/08/29 11:55:34;;;;;;;7.80;3.27;;;28.00;92.10;;;;;;5047771;28;20457;-70
2022/08/29 11:58:37;;;;;;;5.53;3.07;;;28.20;92.50;;;;;;5047534;28;20506;-67
2022/08/29 12:01:08;;;;;;;6.90;3.23;;;28.40;91.50;;;;;;5042850;28;20484;-70
2022/08/29 12:03:54;;;;;;;10.17;3.03;;;28.40;90.90;;;;;;5047619;28;20478;-70
2022/08/29 12:06:41;;;;;;;7.30;3.30;;;28.20;91.20;;;;;;5046867;28;20465;-69
2022/08/29 12:09:31;;;;;;;4.83;2.80;;;28.10;91.40;;;;;;5046719;28;20874;-69
2022/08/29 12:12:32;;;;;;;4.67;2.93;;;27.90;91.10;;;;;;5044541;28;21401;-70
2022/08/29 12:15:00;;;;;;;6.00;3.40;;;27.90;91.20;;;;;;5047002;28;20451;-70
2022/08/29 12:17:44;;;;;;;12.60;3.47;;;27.90;91.20;;;;;;5043279;28;20461;-70
2022/08/29 12:20:18;;;;;;;7.97;3.00;;;27.90;91.10;;;;;;5047824;28;20437;-71
2022/08/29 12:22:55;;;;;;;8.03;3.07;;;27.70;91.10;;;;;;5045745;28;20530;-71
2022/08/29 12:25:48;;;;;;;15.17;2.90;;;27.50;91.50;;;;;;5046457;28;20448;-71
2022/08/29 12:28:46;;;;;;;4.10;2.67;;;27.50;91.80;;;;;;5047377;28;20509;-70
2022/08/29 12:31:45;;;;;;;6.57;2.50;;;27.70;91.40;;;;;;4999376;28;20564;-69
2022/08/29 12:34:25;;;;;;;6.37;2.93;;;27.90;91.50;;;;;;5047051;28;20448;-71
2022/08/29 12:37:10;;;;;;;4.30;2.70;;;28.00;91.00;;;;;;5046711;28;20458;-72
2022/08/29 12:39:59;;;;;;;13.03;2.93;;;28.10;90.60;;;;;;5046507;28;20450;-71
2022/08/29 12:42:35;;;;;;;8.23;3.00;;;28.00;90.10;;;;;;5047623;28;20523;-70
2022/08/29 12:45:05;;;;;;;5.10;3.13;;;28.10;89.30;;;;;;5047876;28;20449;-71
2022/08/29 12:47:35;;;;;;;16.93;2.50;;;28.20;89.70;;;;;;5047042;28;20478;-71
2022/08/29 12:50:06;;;;;;;3.33;2.27;;;28.20;87.80;;;;;;5047812;28;20491;-70
2022/08/29 12:52:36;;;;;;;5.93;2.60;;;28.10;86.90;;;;;;5047743;28;20485;-71
2022/08/29 12:55:20;;;;;;;5.70;3.70;;;28.20;87.50;;;;;;5046062;28;20549;-73
2022/08/29 12:57:47;;;;;;;5.57;2.63;;;28.30;87.30;;;;;;5047319;28;20454;-72
2022/08/29 13:00:20;;;;;;;9.90;2.73;;;28.50;88.20;;;;;;5045174;28;20453;-72
2022/08/29 13:02:57;;;;;;;6.30;3.27;;;28.70;86.80;;;;;;5046215;28;20484;-71
2022/08/29 13:05:26;;;;;;;14.70;3.20;;;28.70;87.00;;;;;;5046005;28;20453;-70